sensor_id;sensor_type;location;lat;lon;timestamp;P1;durP1;ratioP1;P2;durP2;ratioP2
21862;SDS011;11096;51.338;12.524;2024-01-06T00:02:13;7.82;;;4.35;;
21862;SDS011;11096;51.338;12.524;2024-01-06T00:04:38;9.38;;;4.15;;
21862;SDS011;11096;51.338;12.524;2024-01-06T00:07:03;7.00;;;3.88;;
21862;SDS011;11096;51.338;12.524;2024-01-06T00:09:28;8.95;;;4.90;;
21862;SDS011;11096;51.338;12.524;2024-01-06T00:11:53;9.40;;;4.13;;
21862;SDS011;11096;51.338;12.524;2024-01-06T00:14:19;8.02;;;4.15;;
21862;SDS011;11096;51.338;12.524;2024-01-06T00:16:44;7.75;;;4.25;;
21862;SDS011;11096;51.338;12.524;2024-01-06T00:19:09;10.32;;;4.35;;
21862;SDS011;11096;51.338;12.524;2024-01-06T00:21:35;8.43;;;4.22;;
21862;SDS011;11096;51.338;12.524;2024-01-06T00:24:00;10.13;;;3.75;;
21862;SDS011;11096;51.338;12.524;2024-01-06T00:26:25;9.00;;;4.30;;
21862;SDS011;11096;51.338;12.524;2024-01-06T00:28:50;8.18;;;4.30;;
21862;SDS011;11096;51.338;12.524;2024-01-06T00:31:16;9.38;;;3.90;;
21862;SDS011;11096;51.338;12.524;2024-01-06T00:33:44;7.45;;;4.40;;
21862;SDS011;11096;51.338;12.524;2024-01-06T00:36:10;7.63;;;3.80;;
21862;SDS011;11096;51.338;12.524;2024-01-06T00:38:35;9.35;;;4.55;;
21862;SDS011;11096;51.338;12.524;2024-01-06T00:41:00;8.57;;;4.03;;
21862;SDS011;11096;51.338;12.524;2024-01-06T00:43:26;7.47;;;4.35;;
21862;SDS011;11096;51.338;12.524;2024-01-06T00:45:51;7.22;;;4.00;;
21862;SDS011;11096;51.338;12.524;2024-01-06T00:48:16;8.25;;;3.72;;
21862;SDS011;11096;51.338;12.524;2024-01-06T00:50:41;8.73;;;4.45;;
21862;SDS011;11096;51.338;12.524;2024-01-06T00:53:07;8.27;;;4.18;;
21862;SDS011;11096;51.338;12.524;2024-01-06T00:55:32;8.30;;;4.35;;
21862;SDS011;11096;51.338;12.524;2024-01-06T00:57:57;7.55;;;3.90;;
21862;SDS011;11096;51.338;12.524;2024-01-06T01:00:22;7.15;;;4.07;;
21862;SDS011;11096;51.338;12.524;2024-01-06T01:02:48;8.68;;;4.20;;
21862;SDS011;11096;51.338;12.524;2024-01-06T01:05:13;9.68;;;4.63;;
21862;SDS011;11096;51.338;12.524;2024-01-06T01:07:38;8.40;;;5.10;;
21862;SDS011;11096;51.338;12.524;2024-01-06T01:10:03;7.75;;;4.72;;
21862;SDS011;11096;51.338;12.524;2024-01-06T01:12:29;10.68;;;4.38;;
21862;SDS011;11096;51.338;12.524;2024-01-06T01:14:55;7.85;;;4.65;;
21862;SDS011;11096;51.338;12.524;2024-01-06T01:17:20;8.70;;;4.55;;
21862;SDS011;11096;51.338;12.524;2024-01-06T01:19:46;6.88;;;4.55;;
21862;SDS011;11096;51.338;12.524;2024-01-06T01:22:11;9.75;;;5.15;;
21862;SDS011;11096;51.338;12.524;2024-01-06T01:24:36;11.45;;;5.28;;
21862;SDS011;11096;51.338;12.524;2024-01-06T01:27:02;9.63;;;5.20;;
21862;SDS011;11096;51.338;12.524;2024-01-06T01:29:27;7.97;;;4.80;;
21862;SDS011;11096;51.338;12.524;2024-01-06T01:31:52;12.07;;;6.30;;
21862;SDS011;11096;51.338;12.524;2024-01-06T01:34:17;9.93;;;6.15;;
21862;SDS011;11096;51.338;12.524;2024-01-06T01:36:43;17.05;;;6.90;;
21862;SDS011;11096;51.338;12.524;2024-01-06T01:39:08;16.90;;;7.45;;
21862;SDS011;11096;51.338;12.524;2024-01-06T01:41:34;18.05;;;7.32;;
21862;SDS011;11096;51.338;12.524;2024-01-06T01:44:00;19.65;;;7.97;;
21862;SDS011;11096;51.338;12.524;2024-01-06T01:46:25;14.77;;;8.05;;
21862;SDS011;11096;51.338;12.524;2024-01-06T01:48:51;16.42;;;7.00;;
21862;SDS011;11096;51.338;12.524;2024-01-06T01:51:16;13.57;;;6.63;;
21862;SDS011;11096;51.338;12.524;2024-01-06T01:53:43;13.70;;;6.68;;
21862;SDS011;11096;51.338;12.524;2024-01-06T01:56:08;10.13;;;6.45;;
21862;SDS011;11096;51.338;12.524;2024-01-06T01:58:33;12.13;;;6.85;;
21862;SDS011;11096;51.338;12.524;2024-01-06T02:00:59;13.60;;;5.85;;
21862;SDS011;11096;51.338;12.524;2024-01-06T02:03:24;13.38;;;6.35;;
21862;SDS011;11096;51.338;12.524;2024-01-06T02:05:50;16.88;;;6.63;;
21862;SDS011;11096;51.338;12.524;2024-01-06T02:08:15;12.23;;;6.15;;
21862;SDS011;11096;51.338;12.524;2024-01-06T02:10:40;13.32;;;5.80;;
21862;SDS011;11096;51.338;12.524;2024-01-06T02:13:09;13.75;;;5.57;;
21862;SDS011;11096;51.338;12.524;2024-01-06T02:15:36;12.68;;;6.90;;
21862;SDS011;11096;51.338;12.524;2024-01-06T02:18:01;9.65;;;5.55;;
21862;SDS011;11096;51.338;12.524;2024-01-06T02:20:27;10.13;;;5.75;;
21862;SDS011;11096;51.338;12.524;2024-01-06T02:22:53;11.18;;;5.53;;
21862;SDS011;11096;51.338;12.524;2024-01-06T02:25:18;13.52;;;5.90;;
21862;SDS011;11096;51.338;12.524;2024-01-06T02:27:44;16.40;;;5.53;;
21862;SDS011;11096;51.338;12.524;2024-01-06T02:30:09;13.50;;;6.22;;
21862;SDS011;11096;51.338;12.524;2024-01-06T02:32:34;11.40;;;5.90;;
21862;SDS011;11096;51.338;12.524;2024-01-06T02:35:00;9.73;;;5.70;;
21862;SDS011;11096;51.338;12.524;2024-01-06T02:37:25;11.00;;;6.32;;
21862;SDS011;11096;51.338;12.524;2024-01-06T02:39:51;12.23;;;6.15;;
21862;SDS011;11096;51.338;12.524;2024-01-06T02:42:16;13.10;;;6.13;;
21862;SDS011;11096;51.338;12.524;2024-01-06T02:44:41;9.85;;;5.50;;
21862;SDS011;11096;51.338;12.524;2024-01-06T02:47:06;10.85;;;5.95;;
21862;SDS011;11096;51.338;12.524;2024-01-06T02:49:32;9.70;;;5.90;;
21862;SDS011;11096;51.338;12.524;2024-01-06T02:51:57;9.48;;;5.43;;
21862;SDS011;11096;51.338;12.524;2024-01-06T02:54:22;7.43;;;4.90;;
21862;SDS011;11096;51.338;12.524;2024-01-06T02:56:47;9.80;;;5.65;;
21862;SDS011;11096;51.338;12.524;2024-01-06T02:59:12;11.18;;;6.03;;
21862;SDS011;11096;51.338;12.524;2024-01-06T03:01:38;12.00;;;6.55;;
21862;SDS011;11096;51.338;12.524;2024-01-06T03:04:03;11.00;;;6.10;;
21862;SDS011;11096;51.338;12.524;2024-01-06T03:06:28;10.63;;;6.20;;
21862;SDS011;11096;51.338;12.524;2024-01-06T03:08:53;13.45;;;6.10;;
21862;SDS011;11096;51.338;12.524;2024-01-06T03:11:19;10.90;;;6.13;;
21862;SDS011;11096;51.338;12.524;2024-01-06T03:13:44;10.55;;;6.97;;
21862;SDS011;11096;51.338;12.524;2024-01-06T03:16:11;14.80;;;6.75;;
21862;SDS011;11096;51.338;12.524;2024-01-06T03:18:36;10.38;;;6.13;;
21862;SDS011;11096;51.338;12.524;2024-01-06T03:21:01;13.27;;;6.40;;
21862;SDS011;11096;51.338;12.524;2024-01-06T03:23:26;14.68;;;6.70;;
21862;SDS011;11096;51.338;12.524;2024-01-06T03:25:52;13.48;;;7.25;;
21862;SDS011;11096;51.338;12.524;2024-01-06T03:28:17;17.17;;;7.63;;
21862;SDS011;11096;51.338;12.524;2024-01-06T03:30:42;16.02;;;7.07;;
21862;SDS011;11096;51.338;12.524;2024-01-06T03:33:07;18.60;;;7.85;;
21862;SDS011;11096;51.338;12.524;2024-01-06T03:35:33;14.80;;;7.43;;
21862;SDS011;11096;51.338;12.524;2024-01-06T03:37:58;15.00;;;6.85;;
21862;SDS011;11096;51.338;12.524;2024-01-06T03:40:23;12.27;;;6.47;;
21862;SDS011;11096;51.338;12.524;2024-01-06T03:42:48;14.98;;;7.32;;
21862;SDS011;11096;51.338;12.524;2024-01-06T03:45:14;14.88;;;7.30;;
21862;SDS011;11096;51.338;12.524;2024-01-06T03:47:39;17.67;;;7.80;;
21862;SDS011;11096;51.338;12.524;2024-01-06T03:50:04;12.73;;;7.05;;
21862;SDS011;11096;51.338;12.524;2024-01-06T03:52:30;11.82;;;6.97;;
21862;SDS011;11096;51.338;12.524;2024-01-06T03:54:55;13.73;;;8.13;;
21862;SDS011;11096;51.338;12.524;2024-01-06T03:57:20;13.05;;;7.28;;
21862;SDS011;11096;51.338;12.524;2024-01-06T03:59:45;16.67;;;7.72;;
21862;SDS011;11096;51.338;12.524;2024-01-06T04:02:10;14.52;;;8.55;;
21862;SDS011;11096;51.338;12.524;2024-01-06T04:04:36;15.02;;;7.93;;
21862;SDS011;11096;51.338;12.524;2024-01-06T04:07:01;16.77;;;8.25;;
21862;SDS011;11096;51.338;12.524;2024-01-06T04:09:26;15.02;;;7.82;;
21862;SDS011;11096;51.338;12.524;2024-01-06T04:11:52;17.25;;;7.53;;
21862;SDS011;11096;51.338;12.524;2024-01-06T04:14:17;17.52;;;7.28;;
21862;SDS011;11096;51.338;12.524;2024-01-06T04:16:42;13.20;;;7.30;;
21862;SDS011;11096;51.338;12.524;2024-01-06T04:19:07;12.45;;;7.57;;
21862;SDS011;11096;51.338;12.524;2024-01-06T04:21:33;12.23;;;7.50;;
21862;SDS011;11096;51.338;12.524;2024-01-06T04:23:59;14.05;;;6.97;;
21862;SDS011;11096;51.338;12.524;2024-01-06T04:26:24;12.82;;;7.57;;
21862;SDS011;11096;51.338;12.524;2024-01-06T04:28:49;12.93;;;7.22;;
21862;SDS011;11096;51.338;12.524;2024-01-06T04:31:15;13.27;;;7.57;;
21862;SDS011;11096;51.338;12.524;2024-01-06T04:33:40;12.85;;;7.38;;
21862;SDS011;11096;51.338;12.524;2024-01-06T04:36:06;14.52;;;6.60;;
21862;SDS011;11096;51.338;12.524;2024-01-06T04:38:32;15.38;;;7.15;;
21862;SDS011;11096;51.338;12.524;2024-01-06T04:40:57;14.25;;;7.43;;
21862;SDS011;11096;51.338;12.524;2024-01-06T04:43:22;12.48;;;7.13;;
21862;SDS011;11096;51.338;12.524;2024-01-06T04:45:47;14.15;;;6.90;;
21862;SDS011;11096;51.338;12.524;2024-01-06T04:48:13;12.65;;;6.05;;
21862;SDS011;11096;51.338;12.524;2024-01-06T04:50:38;13.10;;;6.70;;
21862;SDS011;11096;51.338;12.524;2024-01-06T04:53:03;15.13;;;6.47;;
21862;SDS011;11096;51.338;12.524;2024-01-06T04:55:28;13.90;;;7.38;;
21862;SDS011;11096;51.338;12.524;2024-01-06T04:57:53;11.65;;;7.18;;
21862;SDS011;11096;51.338;12.524;2024-01-06T05:00:19;13.27;;;7.53;;
21862;SDS011;11096;51.338;12.524;2024-01-06T05:02:44;10.50;;;7.05;;
21862;SDS011;11096;51.338;12.524;2024-01-06T05:05:09;14.75;;;7.20;;
21862;SDS011;11096;51.338;12.524;2024-01-06T05:07:35;10.68;;;6.70;;
21862;SDS011;11096;51.338;12.524;2024-01-06T05:10:00;17.25;;;8.02;;
21862;SDS011;11096;51.338;12.524;2024-01-06T05:12:25;15.00;;;7.63;;
21862;SDS011;11096;51.338;12.524;2024-01-06T05:14:50;13.70;;;7.80;;
21862;SDS011;11096;51.338;12.524;2024-01-06T05:17:15;13.77;;;7.00;;
21862;SDS011;11096;51.338;12.524;2024-01-06T05:19:41;19.25;;;7.68;;
21862;SDS011;11096;51.338;12.524;2024-01-06T05:22:06;12.80;;;7.57;;
21862;SDS011;11096;51.338;12.524;2024-01-06T05:24:31;16.67;;;8.18;;
21862;SDS011;11096;51.338;12.524;2024-01-06T05:26:56;16.25;;;8.50;;
21862;SDS011;11096;51.338;12.524;2024-01-06T05:29:22;15.63;;;8.05;;
21862;SDS011;11096;51.338;12.524;2024-01-06T05:31:47;16.65;;;8.57;;
21862;SDS011;11096;51.338;12.524;2024-01-06T05:34:14;16.35;;;7.53;;
21862;SDS011;11096;51.338;12.524;2024-01-06T05:36:39;10.95;;;7.35;;
21862;SDS011;11096;51.338;12.524;2024-01-06T05:39:04;15.35;;;7.43;;
21862;SDS011;11096;51.338;12.524;2024-01-06T05:41:29;17.60;;;7.43;;
21862;SDS011;11096;51.338;12.524;2024-01-06T05:43:56;13.85;;;7.97;;
21862;SDS011;11096;51.338;12.524;2024-01-06T05:46:22;13.32;;;7.38;;
21862;SDS011;11096;51.338;12.524;2024-01-06T05:48:47;18.13;;;9.05;;
21862;SDS011;11096;51.338;12.524;2024-01-06T05:51:12;12.13;;;8.18;;
21862;SDS011;11096;51.338;12.524;2024-01-06T05:53:38;15.57;;;9.45;;
21862;SDS011;11096;51.338;12.524;2024-01-06T05:56:03;16.63;;;8.85;;
21862;SDS011;11096;51.338;12.524;2024-01-06T05:58:28;18.45;;;8.82;;
21862;SDS011;11096;51.338;12.524;2024-01-06T06:00:53;16.17;;;8.52;;
21862;SDS011;11096;51.338;12.524;2024-01-06T06:03:19;24.15;;;9.40;;
21862;SDS011;11096;51.338;12.524;2024-01-06T06:05:44;16.58;;;8.20;;
21862;SDS011;11096;51.338;12.524;2024-01-06T06:08:10;15.90;;;8.68;;
21862;SDS011;11096;51.338;12.524;2024-01-06T06:10:35;15.55;;;8.75;;
21862;SDS011;11096;51.338;12.524;2024-01-06T06:13:16;19.98;;;9.55;;
21862;SDS011;11096;51.338;12.524;2024-01-06T06:15:41;16.63;;;9.07;;
21862;SDS011;11096;51.338;12.524;2024-01-06T06:18:07;17.20;;;10.38;;
21862;SDS011;11096;51.338;12.524;2024-01-06T06:20:32;16.88;;;9.43;;
21862;SDS011;11096;51.338;12.524;2024-01-06T06:22:57;17.85;;;9.63;;
21862;SDS011;11096;51.338;12.524;2024-01-06T06:25:22;15.63;;;8.88;;
21862;SDS011;11096;51.338;12.524;2024-01-06T06:27:48;19.55;;;10.18;;
21862;SDS011;11096;51.338;12.524;2024-01-06T06:30:13;18.50;;;8.90;;
21862;SDS011;11096;51.338;12.524;2024-01-06T06:32:38;20.90;;;9.20;;
21862;SDS011;11096;51.338;12.524;2024-01-06T06:35:04;18.73;;;9.27;;
21862;SDS011;11096;51.338;12.524;2024-01-06T06:37:29;16.92;;;9.20;;
21862;SDS011;11096;51.338;12.524;2024-01-06T06:39:54;18.60;;;10.00;;
21862;SDS011;11096;51.338;12.524;2024-01-06T06:42:19;20.58;;;10.02;;
21862;SDS011;11096;51.338;12.524;2024-01-06T06:44:45;13.73;;;9.13;;
21862;SDS011;11096;51.338;12.524;2024-01-06T06:47:10;23.60;;;9.48;;
21862;SDS011;11096;51.338;12.524;2024-01-06T06:49:35;23.95;;;9.75;;
21862;SDS011;11096;51.338;12.524;2024-01-06T06:52:00;19.23;;;9.25;;
21862;SDS011;11096;51.338;12.524;2024-01-06T06:54:27;18.00;;;9.13;;
21862;SDS011;11096;51.338;12.524;2024-01-06T06:56:53;16.13;;;9.65;;
21862;SDS011;11096;51.338;12.524;2024-01-06T06:59:19;21.55;;;9.82;;
21862;SDS011;11096;51.338;12.524;2024-01-06T07:01:44;16.65;;;9.65;;
21862;SDS011;11096;51.338;12.524;2024-01-06T07:04:09;17.33;;;9.63;;
21862;SDS011;11096;51.338;12.524;2024-01-06T07:06:34;15.57;;;9.45;;
21862;SDS011;11096;51.338;12.524;2024-01-06T07:09:00;18.50;;;9.52;;
21862;SDS011;11096;51.338;12.524;2024-01-06T07:11:25;19.52;;;10.52;;
21862;SDS011;11096;51.338;12.524;2024-01-06T07:13:50;17.45;;;8.98;;
21862;SDS011;11096;51.338;12.524;2024-01-06T07:16:15;16.80;;;9.45;;
21862;SDS011;11096;51.338;12.524;2024-01-06T07:18:41;17.58;;;9.60;;
21862;SDS011;11096;51.338;12.524;2024-01-06T07:21:06;18.50;;;9.52;;
21862;SDS011;11096;51.338;12.524;2024-01-06T07:23:32;16.40;;;9.13;;
21862;SDS011;11096;51.338;12.524;2024-01-06T07:25:57;20.10;;;11.10;;
21862;SDS011;11096;51.338;12.524;2024-01-06T07:28:23;16.92;;;9.85;;
21862;SDS011;11096;51.338;12.524;2024-01-06T07:30:48;24.00;;;10.43;;
21862;SDS011;11096;51.338;12.524;2024-01-06T07:33:13;22.77;;;10.27;;
21862;SDS011;11096;51.338;12.524;2024-01-06T07:35:38;19.80;;;10.35;;
21862;SDS011;11096;51.338;12.524;2024-01-06T07:38:08;18.60;;;9.75;;
21862;SDS011;11096;51.338;12.524;2024-01-06T07:40:35;21.63;;;10.60;;
21862;SDS011;11096;51.338;12.524;2024-01-06T07:43:00;22.33;;;12.10;;
21862;SDS011;11096;51.338;12.524;2024-01-06T07:45:27;21.45;;;11.88;;
21862;SDS011;11096;51.338;12.524;2024-01-06T07:47:52;20.65;;;11.82;;
21862;SDS011;11096;51.338;12.524;2024-01-06T07:50:17;24.58;;;11.95;;
21862;SDS011;11096;51.338;12.524;2024-01-06T07:52:42;22.83;;;12.38;;
21862;SDS011;11096;51.338;12.524;2024-01-06T07:55:08;18.52;;;11.57;;
21862;SDS011;11096;51.338;12.524;2024-01-06T07:57:33;21.42;;;11.77;;
21862;SDS011;11096;51.338;12.524;2024-01-06T07:59:58;23.38;;;11.73;;
21862;SDS011;11096;51.338;12.524;2024-01-06T08:02:23;20.33;;;11.63;;
21862;SDS011;11096;51.338;12.524;2024-01-06T08:04:49;18.70;;;11.00;;
21862;SDS011;11096;51.338;12.524;2024-01-06T08:07:14;19.58;;;11.60;;
21862;SDS011;11096;51.338;12.524;2024-01-06T08:09:39;18.08;;;10.85;;
21862;SDS011;11096;51.338;12.524;2024-01-06T08:12:04;16.17;;;10.18;;
21862;SDS011;11096;51.338;12.524;2024-01-06T08:14:30;22.77;;;10.85;;
21862;SDS011;11096;51.338;12.524;2024-01-06T08:16:55;17.73;;;10.88;;
21862;SDS011;11096;51.338;12.524;2024-01-06T08:19:20;22.23;;;11.43;;
21862;SDS011;11096;51.338;12.524;2024-01-06T08:21:45;20.95;;;10.65;;
21862;SDS011;11096;51.338;12.524;2024-01-06T08:24:12;18.25;;;10.20;;
21862;SDS011;11096;51.338;12.524;2024-01-06T08:26:37;14.80;;;9.82;;
21862;SDS011;11096;51.338;12.524;2024-01-06T08:29:02;18.42;;;9.48;;
21862;SDS011;11096;51.338;12.524;2024-01-06T08:31:28;17.63;;;8.93;;
21862;SDS011;11096;51.338;12.524;2024-01-06T08:33:53;17.45;;;9.52;;
21862;SDS011;11096;51.338;12.524;2024-01-06T08:36:18;14.73;;;9.35;;
21862;SDS011;11096;51.338;12.524;2024-01-06T08:38:43;16.30;;;8.98;;
21862;SDS011;11096;51.338;12.524;2024-01-06T08:41:09;18.23;;;9.27;;
21862;SDS011;11096;51.338;12.524;2024-01-06T08:43:34;16.23;;;8.73;;
21862;SDS011;11096;51.338;12.524;2024-01-06T08:45:59;13.40;;;9.00;;
21862;SDS011;11096;51.338;12.524;2024-01-06T08:48:25;17.05;;;9.63;;
21862;SDS011;11096;51.338;12.524;2024-01-06T08:50:50;20.10;;;10.05;;
21862;SDS011;11096;51.338;12.524;2024-01-06T08:53:16;16.77;;;9.65;;
21862;SDS011;11096;51.338;12.524;2024-01-06T08:55:41;12.90;;;8.93;;
21862;SDS011;11096;51.338;12.524;2024-01-06T08:58:06;17.63;;;9.80;;
21862;SDS011;11096;51.338;12.524;2024-01-06T09:00:31;13.93;;;8.65;;
21862;SDS011;11096;51.338;12.524;2024-01-06T09:02:57;15.73;;;9.43;;
21862;SDS011;11096;51.338;12.524;2024-01-06T09:05:22;12.50;;;8.55;;
21862;SDS011;11096;51.338;12.524;2024-01-06T09:07:47;13.55;;;8.60;;
21862;SDS011;11096;51.338;12.524;2024-01-06T09:10:15;16.55;;;9.32;;
21862;SDS011;11096;51.338;12.524;2024-01-06T09:12:41;13.77;;;9.48;;
21862;SDS011;11096;51.338;12.524;2024-01-06T09:15:06;14.77;;;8.98;;
21862;SDS011;11096;51.338;12.524;2024-01-06T09:17:32;21.30;;;10.48;;
21862;SDS011;11096;51.338;12.524;2024-01-06T09:19:57;15.68;;;10.23;;
21862;SDS011;11096;51.338;12.524;2024-01-06T09:22:23;19.77;;;11.05;;
21862;SDS011;11096;51.338;12.524;2024-01-06T09:24:49;17.23;;;10.85;;
21862;SDS011;11096;51.338;12.524;2024-01-06T09:27:14;18.55;;;10.15;;
21862;SDS011;11096;51.338;12.524;2024-01-06T09:29:40;20.15;;;10.82;;
21862;SDS011;11096;51.338;12.524;2024-01-06T09:32:05;23.10;;;12.15;;
21862;SDS011;11096;51.338;12.524;2024-01-06T09:34:30;20.77;;;11.25;;
21862;SDS011;11096;51.338;12.524;2024-01-06T09:36:55;18.30;;;11.20;;
21862;SDS011;11096;51.338;12.524;2024-01-06T09:39:20;18.25;;;10.90;;
21862;SDS011;11096;51.338;12.524;2024-01-06T09:41:46;17.25;;;10.05;;
21862;SDS011;11096;51.338;12.524;2024-01-06T09:44:11;13.63;;;9.48;;
21862;SDS011;11096;51.338;12.524;2024-01-06T09:46:36;18.85;;;10.82;;
21862;SDS011;11096;51.338;12.524;2024-01-06T09:49:03;16.35;;;10.00;;
21862;SDS011;11096;51.338;12.524;2024-01-06T09:51:28;18.13;;;11.05;;
21862;SDS011;11096;51.338;12.524;2024-01-06T09:54:00;17.60;;;10.77;;
21862;SDS011;11096;51.338;12.524;2024-01-06T09:56:26;18.27;;;10.75;;
21862;SDS011;11096;51.338;12.524;2024-01-06T09:58:52;16.40;;;9.57;;
21862;SDS011;11096;51.338;12.524;2024-01-06T10:01:18;15.68;;;8.50;;
21862;SDS011;11096;51.338;12.524;2024-01-06T10:03:44;19.30;;;10.27;;
21862;SDS011;11096;51.338;12.524;2024-01-06T10:06:10;16.70;;;9.23;;
21862;SDS011;11096;51.338;12.524;2024-01-06T10:08:36;15.18;;;9.38;;
21862;SDS011;11096;51.338;12.524;2024-01-06T10:11:01;14.55;;;9.15;;
21862;SDS011;11096;51.338;12.524;2024-01-06T10:13:26;19.55;;;9.80;;
21862;SDS011;11096;51.338;12.524;2024-01-06T10:15:53;14.57;;;8.43;;
21862;SDS011;11096;51.338;12.524;2024-01-06T10:18:19;12.73;;;7.80;;
21862;SDS011;11096;51.338;12.524;2024-01-06T10:20:44;16.67;;;8.00;;
21862;SDS011;11096;51.338;12.524;2024-01-06T10:23:10;13.52;;;8.02;;
21862;SDS011;11096;51.338;12.524;2024-01-06T10:25:35;12.77;;;8.00;;
21862;SDS011;11096;51.338;12.524;2024-01-06T10:28:00;12.65;;;8.25;;
21862;SDS011;11096;51.338;12.524;2024-01-06T10:30:29;20.52;;;9.25;;
21862;SDS011;11096;51.338;12.524;2024-01-06T10:32:54;15.50;;;8.88;;
21862;SDS011;11096;51.338;12.524;2024-01-06T10:35:19;13.88;;;9.20;;
21862;SDS011;11096;51.338;12.524;2024-01-06T10:37:45;14.10;;;8.90;;
21862;SDS011;11096;51.338;12.524;2024-01-06T10:40:11;14.13;;;9.43;;
21862;SDS011;11096;51.338;12.524;2024-01-06T10:42:37;13.88;;;9.38;;
21862;SDS011;11096;51.338;12.524;2024-01-06T10:45:05;15.57;;;9.90;;
21862;SDS011;11096;51.338;12.524;2024-01-06T10:47:31;18.60;;;10.82;;
21862;SDS011;11096;51.338;12.524;2024-01-06T10:49:58;15.20;;;9.15;;
21862;SDS011;11096;51.338;12.524;2024-01-06T10:52:24;14.60;;;9.90;;
21862;SDS011;11096;51.338;12.524;2024-01-06T10:54:49;16.48;;;10.32;;
21862;SDS011;11096;51.338;12.524;2024-01-06T10:57:16;19.30;;;10.70;;
21862;SDS011;11096;51.338;12.524;2024-01-06T10:59:43;15.02;;;10.05;;
21862;SDS011;11096;51.338;12.524;2024-01-06T11:02:10;16.58;;;10.80;;
21862;SDS011;11096;51.338;12.524;2024-01-06T11:04:37;18.77;;;10.48;;
21862;SDS011;11096;51.338;12.524;2024-01-06T11:07:02;15.23;;;10.85;;
21862;SDS011;11096;51.338;12.524;2024-01-06T11:09:29;17.98;;;11.32;;
21862;SDS011;11096;51.338;12.524;2024-01-06T11:11:56;18.05;;;11.02;;
21862;SDS011;11096;51.338;12.524;2024-01-06T11:14:25;19.90;;;11.70;;
21862;SDS011;11096;51.338;12.524;2024-01-06T11:16:52;16.58;;;10.52;;
21862;SDS011;11096;51.338;12.524;2024-01-06T11:25:08;17.85;;;11.43;;
21862;SDS011;11096;51.338;12.524;2024-01-06T11:27:36;20.30;;;11.95;;
21862;SDS011;11096;51.338;12.524;2024-01-06T11:30:02;17.63;;;10.38;;
21862;SDS011;11096;51.338;12.524;2024-01-06T11:32:33;17.73;;;10.43;;
21862;SDS011;11096;51.338;12.524;2024-01-06T11:35:12;15.57;;;10.63;;
21862;SDS011;11096;51.338;12.524;2024-01-06T11:43:08;18.98;;;11.52;;
21862;SDS011;11096;51.338;12.524;2024-01-06T11:45:32;17.73;;;11.40;;
21862;SDS011;11096;51.338;12.524;2024-01-06T11:48:02;18.75;;;12.10;;
21862;SDS011;11096;51.338;12.524;2024-01-06T11:50:29;16.45;;;11.32;;
21862;SDS011;11096;51.338;12.524;2024-01-06T11:52:54;17.63;;;11.10;;
21862;SDS011;11096;51.338;12.524;2024-01-06T11:55:20;17.70;;;10.98;;
21862;SDS011;11096;51.338;12.524;2024-01-06T11:57:45;20.02;;;11.63;;
21862;SDS011;11096;51.338;12.524;2024-01-06T12:00:12;20.73;;;11.40;;
21862;SDS011;11096;51.338;12.524;2024-01-06T12:02:39;21.50;;;11.55;;
21862;SDS011;11096;51.338;12.524;2024-01-06T12:05:04;20.00;;;12.32;;
21862;SDS011;11096;51.338;12.524;2024-01-06T12:07:30;19.17;;;12.18;;
21862;SDS011;11096;51.338;12.524;2024-01-06T12:10:03;21.52;;;12.82;;
21862;SDS011;11096;51.338;12.524;2024-01-06T12:12:28;19.83;;;12.85;;
21862;SDS011;11096;51.338;12.524;2024-01-06T12:14:53;22.02;;;13.45;;
21862;SDS011;11096;51.338;12.524;2024-01-06T12:17:19;21.05;;;13.75;;
21862;SDS011;11096;51.338;12.524;2024-01-06T12:19:45;23.35;;;12.88;;
21862;SDS011;11096;51.338;12.524;2024-01-06T12:22:11;23.42;;;13.10;;
21862;SDS011;11096;51.338;12.524;2024-01-06T12:24:38;22.73;;;13.52;;
21862;SDS011;11096;51.338;12.524;2024-01-06T12:27:03;20.65;;;13.65;;
21862;SDS011;11096;51.338;12.524;2024-01-06T12:29:28;20.50;;;12.88;;
21862;SDS011;11096;51.338;12.524;2024-01-06T12:31:54;20.25;;;13.07;;
21862;SDS011;11096;51.338;12.524;2024-01-06T12:34:20;24.30;;;14.35;;
21862;SDS011;11096;51.338;12.524;2024-01-06T12:36:45;21.75;;;13.38;;
21862;SDS011;11096;51.338;12.524;2024-01-06T12:39:12;26.25;;;14.60;;
21862;SDS011;11096;51.338;12.524;2024-01-06T12:41:41;23.15;;;13.98;;
21862;SDS011;11096;51.338;12.524;2024-01-06T12:44:06;26.02;;;14.38;;
21862;SDS011;11096;51.338;12.524;2024-01-06T12:46:32;25.98;;;14.75;;
21862;SDS011;11096;51.338;12.524;2024-01-06T12:48:57;24.60;;;13.93;;
21862;SDS011;11096;51.338;12.524;2024-01-06T12:51:23;27.60;;;15.50;;
21862;SDS011;11096;51.338;12.524;2024-01-06T12:53:48;30.10;;;15.18;;
21862;SDS011;11096;51.338;12.524;2024-01-06T12:56:13;29.05;;;15.85;;
21862;SDS011;11096;51.338;12.524;2024-01-06T12:58:40;30.13;;;16.75;;
21862;SDS011;11096;51.338;12.524;2024-01-06T13:01:05;28.58;;;16.27;;
21862;SDS011;11096;51.338;12.524;2024-01-06T13:03:30;29.67;;;16.58;;
21862;SDS011;11096;51.338;12.524;2024-01-06T13:05:55;33.00;;;17.73;;
21862;SDS011;11096;51.338;12.524;2024-01-06T13:08:21;37.90;;;18.10;;
21862;SDS011;11096;51.338;12.524;2024-01-06T13:10:46;30.92;;;17.30;;
21862;SDS011;11096;51.338;12.524;2024-01-06T13:13:11;32.58;;;17.88;;
21862;SDS011;11096;51.338;12.524;2024-01-06T13:15:36;32.20;;;17.65;;
21862;SDS011;11096;51.338;12.524;2024-01-06T13:18:02;37.72;;;19.10;;
21862;SDS011;11096;51.338;12.524;2024-01-06T13:20:27;42.03;;;20.90;;
21862;SDS011;11096;51.338;12.524;2024-01-06T13:22:52;39.53;;;18.98;;
21862;SDS011;11096;51.338;12.524;2024-01-06T13:25:18;39.47;;;19.52;;
21862;SDS011;11096;51.338;12.524;2024-01-06T13:27:45;42.45;;;20.98;;
21862;SDS011;11096;51.338;12.524;2024-01-06T13:30:10;42.90;;;21.33;;
21862;SDS011;11096;51.338;12.524;2024-01-06T13:32:38;42.13;;;20.88;;
21862;SDS011;11096;51.338;12.524;2024-01-06T13:35:04;40.17;;;20.98;;
21862;SDS011;11096;51.338;12.524;2024-01-06T13:37:33;43.22;;;20.60;;
21862;SDS011;11096;51.338;12.524;2024-01-06T13:39:58;47.67;;;21.77;;
21862;SDS011;11096;51.338;12.524;2024-01-06T13:42:24;46.10;;;21.40;;
21862;SDS011;11096;51.338;12.524;2024-01-06T13:44:49;50.63;;;23.15;;
21862;SDS011;11096;51.338;12.524;2024-01-06T13:47:14;49.45;;;22.83;;
21862;SDS011;11096;51.338;12.524;2024-01-06T13:49:40;45.35;;;22.17;;
21862;SDS011;11096;51.338;12.524;2024-01-06T13:52:05;47.20;;;22.10;;
21862;SDS011;11096;51.338;12.524;2024-01-06T13:54:32;47.78;;;22.27;;
21862;SDS011;11096;51.338;12.524;2024-01-06T13:56:58;52.45;;;24.25;;
21862;SDS011;11096;51.338;12.524;2024-01-06T13:59:23;59.95;;;23.95;;
21862;SDS011;11096;51.338;12.524;2024-01-06T14:01:48;47.15;;;23.27;;
21862;SDS011;11096;51.338;12.524;2024-01-06T14:04:13;54.40;;;24.23;;
21862;SDS011;11096;51.338;12.524;2024-01-06T14:06:39;54.63;;;24.63;;
21862;SDS011;11096;51.338;12.524;2024-01-06T14:09:05;54.55;;;26.77;;
21862;SDS011;11096;51.338;12.524;2024-01-06T14:11:30;60.25;;;27.50;;
21862;SDS011;11096;51.338;12.524;2024-01-06T14:13:57;60.90;;;27.27;;
21862;SDS011;11096;51.338;12.524;2024-01-06T14:16:22;64.03;;;28.50;;
21862;SDS011;11096;51.338;12.524;2024-01-06T14:18:47;72.15;;;29.38;;
21862;SDS011;11096;51.338;12.524;2024-01-06T14:21:13;65.65;;;28.38;;